KHSE

Details ICAO KHSE
Name Billy Mitchell
Region United States
Timezone America/New_York (UTC-5.0)
Plans Departing 10
Arriving 18
Stats Elevation 17 ft / 5 m (AMSL)
Location 35.232793° -75.617790°
Runways 1
Magnetic Variation 10.917° W
Sunrise 2017-12-13 12:03:56 UTC / 2017-12-13 07:03:56 Local
Sunset 2017-12-13 21:52:27 UTC / 2017-12-13 16:52:27 Local
Advertisement - Login to hide

Runways

ID Width Length Bearing (true) Bearing (mag) Surface Threshold Offset Overrun Length
07 75 ft / 23 m 2,996 ft / 913 m 56.60° 67.52° Asphalt 0 ft / 0 m 0 ft / 0 m
25 75 ft / 23 m 2,996 ft / 913 m 236.60° 247.52° Asphalt 0 ft / 0 m 0 ft / 0 m

Map

Weather


0- 5 10 15 20 25 30 35+ Temperature / ° C

Clouds and Precipitation
Forecast for 2017-12-14 06:00 UTC. Updated an hour ago

Ground ~20,000 ft ~40,000 ft Winds

METAR

KHSE 140151Z AUTO 27006KT 10SM CLR 04/M06 A2987 RMK AO2 SLP115 T00441056 TSNO

TAF

Not found

Frequencies

Recorded 118.37 MHz ASOS
Approach 119.75 MHz CHERRY POINT APP/DEP
Unicom 122.90 MHz CTAF
Warning: Do not use this data for real-world aviation or navigation. No guarantee of current accuracy is given.